Time;durP1;ratioP1;P1;durP2;ratioP2;P2;SDS_P1;SDS_P2;PMS_P1;PMS_P2;Temp;Humidity;BMP_temperature;BMP_pressure;BME280_temperature;BME280_humidity;BME280_pressure;Samples;Min_cycle;Max_cycle;Signal;HPM_P1;HPM_P2
2023/02/06 00:01:23;;;;;;;19.93;10.70;;;;;;;-4.09;92.83;103401.25;4974827;28;20265;-69
2023/02/06 00:03:49;;;;;;;24.30;9.77;;;;;;;-4.19;91.79;103389.78;4974507;28;20564;-68
2023/02/06 00:06:16;;;;;;;25.13;9.70;;;;;;;-4.28;91.47;103390.59;4974889;28;20815;-68
2023/02/06 00:08:43;;;;;;;23.40;10.60;;;;;;;-4.19;91.36;103392.44;4974581;28;20489;-69
2023/02/06 00:11:12;;;;;;;23.60;10.37;;;;;;;-4.19;91.00;103403.03;4974534;28;20962;-70
2023/02/06 00:13:40;;;;;;;20.00;9.80;;;;;;;-4.31;92.33;103408.41;4974718;28;20492;-70
2023/02/06 00:16:16;;;;;;;26.27;10.20;;;;;;;-4.32;92.24;103406.72;4974741;28;20540;-69
2023/02/06 00:18:42;;;;;;;25.27;12.90;;;;;;;-4.21;92.75;103421.66;4974788;28;20281;-69
2023/02/06 00:21:09;;;;;;;27.20;11.60;;;;;;;-4.26;94.11;103430.97;4974700;28;20486;-70
2023/02/06 00:23:35;;;;;;;25.10;13.00;;;;;;;-4.27;95.21;103424.00;4974591;28;20561;-69
2023/02/06 00:26:02;;;;;;;17.20;9.70;;;;;;;-4.22;94.78;103433.22;4974351;28;20945;-70
2023/02/06 00:28:28;;;;;;;22.33;10.30;;;;;;;-4.13;94.09;103431.59;4974556;28;20450;-70
2023/02/06 00:30:56;;;;;;;20.37;11.47;;;;;;;-4.23;94.33;103420.13;4974543;28;20433;-70
2023/02/06 00:33:23;;;;;;;22.10;10.43;;;;;;;-4.27;94.35;103426.66;4974150;28;20541;-70
2023/02/06 00:35:49;;;;;;;33.40;12.27;;;;;;;-4.23;92.85;103436.00;4974109;28;20457;-70
2023/02/06 00:38:16;;;;;;;24.10;11.30;;;;;;;-4.39;92.91;103437.31;4974367;28;20535;-69
2023/02/06 00:40:43;;;;;;;19.93;9.87;;;;;;;-4.47;94.38;103426.56;4974033;28;20999;-70
2023/02/06 00:43:09;;;;;;;22.27;10.13;;;;;;;-4.35;94.52;103422.84;4974055;28;21006;-70
2023/02/06 00:45:36;;;;;;;16.53;8.60;;;;;;;-4.39;93.51;103417.97;4974297;28;20482;-67
2023/02/06 00:48:04;;;;;;;21.10;9.40;;;;;;;-4.40;92.70;103414.47;4974417;28;20464;-69
2023/02/06 00:50:31;;;;;;;20.07;10.30;;;;;;;-4.35;92.75;103420.22;4974015;28;20477;-69
2023/02/06 00:52:57;;;;;;;18.53;9.23;;;;;;;-4.35;92.04;103419.38;4974275;28;20505;-70
2023/02/06 00:55:24;;;;;;;30.53;10.83;;;;;;;-4.43;92.71;103427.13;4974272;28;20445;-68
2023/02/06 00:57:50;;;;;;;18.30;10.00;;;;;;;-4.41;93.45;103420.75;4973954;28;20541;-69
2023/02/06 01:00:17;;;;;;;24.77;11.00;;;;;;;-4.41;92.32;103420.75;4973843;28;20456;-68
2023/02/06 01:02:44;;;;;;;14.07;8.80;;;;;;;-4.42;92.60;103423.53;4973841;28;20930;-69
2023/02/06 01:05:12;;;;;;;22.93;9.53;;;;;;;-4.22;92.26;103424.44;4974230;28;20465;-68
2023/02/06 01:07:39;;;;;;;17.73;8.70;;;;;;;-4.08;92.31;103426.72;4975554;28;20542;-69
2023/02/06 01:10:08;;;;;;;19.83;9.03;;;;;;;-4.12;93.66;103422.66;4974203;28;20449;-69
2023/02/06 01:12:35;;;;;;;17.67;8.30;;;;;;;-3.99;93.43;103407.41;4973705;28;20983;-68
2023/02/06 01:15:02;;;;;;;12.50;7.33;;;;;;;-4.20;93.52;103414.59;4973843;28;20895;-69
2023/02/06 01:17:30;;;;;;;15.90;8.13;;;;;;;-4.27;95.21;103410.78;4974084;28;20549;-69
2023/02/06 01:19:57;;;;;;;25.03;8.57;;;;;;;-4.15;94.27;103412.38;4973788;28;20442;-69
2023/02/06 01:22:25;;;;;;;25.50;9.70;;;;;;;-4.31;91.98;103424.28;4973547;28;20499;-69
2023/02/06 01:24:51;;;;;;;15.40;8.50;;;;;;;-4.38;91.89;103417.00;4973713;28;20445;-69
2023/02/06 01:27:18;;;;;;;22.13;8.30;;;;;;;-4.34;92.43;103416.63;4974034;28;20438;-68
2023/02/06 01:29:45;;;;;;;24.83;10.87;;;;;;;-4.35;92.10;103411.44;4974396;28;20545;-68
2023/02/06 01:32:11;;;;;;;17.63;8.90;;;;;;;-4.35;91.76;103403.50;4973951;28;20537;-69
2023/02/06 01:34:38;;;;;;;22.00;10.03;;;;;;;-4.49;92.17;103398.56;4973974;28;20448;-69
2023/02/06 01:37:04;;;;;;;20.13;9.10;;;;;;;-4.42;93.01;103391.78;4973681;28;20816;-69
2023/02/06 01:39:32;;;;;;;28.07;8.00;;;;;;;-4.36;92.49;103393.91;4973947;28;20540;-69
2023/02/06 01:41:59;;;;;;;17.97;9.10;;;;;;;-4.41;91.85;103391.66;4973782;28;20486;-69
2023/02/06 01:44:26;;;;;;;19.03;8.87;;;;;;;-4.37;92.48;103387.78;4973605;28;20445;-69
2023/02/06 01:46:55;;;;;;;13.57;7.37;;;;;;;-4.44;91.87;103372.56;4975635;28;20500;-69
2023/02/06 01:49:25;;;;;;;21.70;9.17;;;;;;;-4.29;91.02;103373.88;4977117;28;20837;-67
2023/02/06 01:51:54;;;;;;;21.97;8.27;;;;;;;-4.42;91.28;103363.53;4977381;28;20441;-69
2023/02/06 01:54:20;;;;;;;17.93;7.70;;;;;;;-4.53;92.05;103360.13;4977007;28;20445;-68
2023/02/06 01:56:52;;;;;;;22.50;10.30;;;;;;;-4.62;92.87;103359.13;4977277;28;20477;-69
2023/02/06 01:59:20;;;;;;;13.67;8.17;;;;;;;-4.60;93.67;103359.84;4977227;28;20441;-69
2023/02/06 02:01:47;;;;;;;23.13;10.20;;;;;;;-4.53;93.94;103341.63;4976558;28;20576;-68
2023/02/06 02:04:17;;;;;;;18.70;9.90;;;;;;;-4.53;92.93;103339.81;4977175;28;20789;-69
2023/02/06 02:06:48;;;;;;;26.00;10.33;;;;;;;-4.57;93.04;103343.69;4977136;28;20207;-69
2023/02/06 02:09:16;;;;;;;17.10;9.30;;;;;;;-4.43;92.18;103338.03;4977115;28;20496;-69
2023/02/06 02:11:43;;;;;;;20.67;8.20;;;;;;;-4.36;91.32;103346.28;4976960;28;20449;-69
2023/02/06 02:14:15;;;;;;;24.57;8.07;;;;;;;-4.50;93.05;103336.91;4976980;28;20445;-68
2023/02/06 02:16:51;;;;;;;19.30;8.80;;;;;;;-4.52;92.89;103338.84;4976991;28;20438;-69
2023/02/06 02:19:42;;;;;;;17.63;7.80;;;;;;;-4.61;93.98;103343.09;4976589;28;20470;-67
2023/02/06 02:22:30;;;;;;;17.37;8.03;;;;;;;-4.54;93.46;103338.13;4973389;28;20488;-69
2023/02/06 02:25:17;;;;;;;13.80;6.80;;;;;;;-4.45;93.50;103334.69;4976531;28;20430;-69
2023/02/06 02:28:10;;;;;;;17.17;7.50;;;;;;;-4.28;92.97;103342.97;4976776;28;20846;-70
2023/02/06 02:30:58;;;;;;;14.90;7.65;;;;;;;-4.29;93.33;103341.28;4976354;28;20436;-69
2023/02/06 02:33:52;;;;;;;22.37;7.63;;;;;;;-4.19;93.48;103336.88;4976591;28;20231;-69
2023/02/06 02:36:26;;;;;;;13.47;6.87;;;;;;;-4.10;93.56;103328.94;4976583;28;20468;-69
2023/02/06 02:39:03;;;;;;;18.17;8.00;;;;;;;-3.93;93.02;103323.97;4976524;28;20517;-69
2023/02/06 02:41:37;;;;;;;17.17;8.03;;;;;;;-3.79;93.20;103323.56;4976128;28;20472;-69
2023/02/06 02:44:09;;;;;;;26.60;8.63;;;;;;;-3.69;93.21;103312.97;4976178;28;20429;-69
2023/02/06 02:46:40;;;;;;;14.83;7.60;;;;;;;-3.51;94.05;103305.16;4976463;28;20854;-69
2023/02/06 02:49:11;;;;;;;16.93;7.03;;;;;;;-3.37;95.75;103304.72;4976339;28;20825;-69
2023/02/06 02:51:40;;;;;;;17.90;8.27;;;;;;;-3.24;95.99;103310.56;4976255;28;20461;-68
2023/02/06 02:54:07;;;;;;;19.37;8.00;;;;;;;-3.16;96.72;103309.88;4976261;28;20546;-69
2023/02/06 02:56:34;;;;;;;21.60;8.47;;;;;;;-3.06;97.48;103321.28;4976245;28;20457;-69
2023/02/06 02:59:05;;;;;;;14.90;6.10;;;;;;;-2.94;97.35;103311.34;4974960;28;20452;-69
2023/02/06 03:01:35;;;;;;;17.37;8.07;;;;;;;-2.88;97.10;103308.13;4975749;28;20568;-68
2023/02/06 03:04:06;;;;;;;13.87;6.57;;;;;;;-2.80;95.93;103300.28;4976086;28;20501;-68
2023/02/06 03:06:54;;;;;;;19.30;7.50;;;;;;;-2.81;95.81;103298.63;4976222;28;20458;-69
2023/02/06 03:09:35;;;;;;;22.97;8.07;;;;;;;-2.78;96.22;103308.13;4972528;28;20460;-69
2023/02/06 03:12:11;;;;;;;14.60;7.50;;;;;;;-2.69;95.91;103320.50;4975798;28;20841;-69
2023/02/06 03:14:45;;;;;;;17.57;7.50;;;;;;;-2.57;95.20;103321.97;4980043;28;20453;-69
2023/02/06 03:17:17;;;;;;;15.63;6.37;;;;;;;-2.41;94.74;103326.66;4975617;28;20926;-69
2023/02/06 03:19:48;;;;;;;20.93;7.60;;;;;;;-2.41;95.06;103326.66;4975838;28;20426;-69
2023/02/06 03:22:16;;;;;;;15.00;7.17;;;;;;;-2.43;94.49;103324.16;4975525;28;20490;-69
2023/02/06 03:24:44;;;;;;;18.00;6.37;;;;;;;-2.41;94.54;103316.03;4975427;28;20818;-69
2023/02/06 03:27:14;;;;;;;16.67;7.43;;;;;;;-2.40;94.67;103318.53;4975670;28;20450;-69
2023/02/06 03:29:42;;;;;;;18.93;5.43;;;;;;;-2.19;94.52;103307.69;4975245;28;20456;-69
2023/02/06 03:32:15;;;;;;;9.27;5.00;;;;;;;-2.05;94.56;103309.81;4975526;28;20458;-69
2023/02/06 03:34:51;;;;;;;12.43;4.77;;;;;;;-2.00;93.58;103309.38;4975525;28;20440;-69
2023/02/06 03:37:17;;;;;;;12.90;5.47;;;;;;;-1.93;93.22;103314.94;4975614;28;20436;-69
2023/02/06 03:39:45;;;;;;;11.77;5.20;;;;;;;-1.90;93.58;103304.84;4975462;28;20477;-69
2023/02/06 03:42:14;;;;;;;16.20;5.80;;;;;;;-1.72;93.24;103304.00;4975265;28;20493;-69
2023/02/06 03:44:46;;;;;;;9.93;3.70;;;;;;;-1.60;92.94;103295.63;4975040;28;20939;-69
2023/02/06 03:47:16;;;;;;;10.07;3.93;;;;;;;-1.53;92.84;103287.91;4975311;28;20440;-69
2023/02/06 03:49:45;;;;;;;11.70;3.80;;;;;;;-1.52;92.04;103297.53;4975253;28;20478;-69
2023/02/06 03:52:16;;;;;;;10.97;4.00;;;;;;;-1.43;91.70;103296.59;4974824;28;20880;-69
2023/02/06 03:54:49;;;;;;;8.40;3.70;;;;;;;-1.47;91.18;103302.38;4974938;28;20937;-69
2023/02/06 03:57:18;;;;;;;10.20;3.87;;;;;;;-1.46;91.05;103320.84;4974910;28;20434;-69
2023/02/06 03:59:44;;;;;;;11.30;4.50;;;;;;;-1.41;91.03;103315.91;4975002;28;20442;-69
2023/02/06 04:02:13;;;;;;;16.27;3.73;;;;;;;-1.31;91.02;103311.34;4974563;28;20508;-69
2023/02/06 04:04:42;;;;;;;7.93;3.77;;;;;;;-1.37;91.60;103311.97;4975006;28;20472;-69
2023/02/06 04:07:13;;;;;;;10.87;4.50;;;;;;;-1.34;91.42;103308.97;4974960;28;20446;-70
2023/02/06 04:09:40;;;;;;;15.33;4.23;;;;;;;-1.34;92.20;103310.81;4974664;28;20524;-70
2023/02/06 04:12:08;;;;;;;7.60;3.70;;;;;;;-1.22;91.24;103316.72;4974815;28;20454;-70
2023/02/06 04:14:35;;;;;;;9.20;3.57;;;;;;;-1.23;91.22;103307.06;4974800;28;20492;-70
2023/02/06 04:17:02;;;;;;;10.93;3.87;;;;;;;-1.21;92.71;103305.09;4974815;28;20450;-71
2023/02/06 04:19:29;;;;;;;9.93;3.43;;;;;;;-1.13;92.65;103308.63;4974772;28;20536;-69
2023/02/06 04:21:55;;;;;;;8.40;3.80;;;;;;;-1.14;93.78;103314.13;4974298;28;20565;-70
2023/02/06 04:24:22;;;;;;;9.93;3.33;;;;;;;-1.05;93.84;103294.56;4974675;28;20533;-69
2023/02/06 04:26:49;;;;;;;8.87;3.73;;;;;;;-1.05;94.50;103286.59;4974641;28;20446;-69
2023/02/06 04:29:17;;;;;;;7.70;2.80;;;;;;;-0.98;94.13;103298.25;4974581;28;20485;-69
2023/02/06 04:31:43;;;;;;;9.13;3.00;;;;;;;-1.00;94.76;103292.25;4974291;28;20481;-68
2023/02/06 04:34:10;;;;;;;8.47;3.40;;;;;;;-1.02;95.26;103297.75;4974258;28;20485;-69
2023/02/06 04:36:37;;;;;;;10.67;3.53;;;;;;;-1.05;95.66;103297.22;4974521;28;20445;-69
2023/02/06 04:39:04;;;;;;;10.50;3.80;;;;;;;-1.09;97.18;103301.19;4974533;28;20541;-69
2023/02/06 04:41:31;;;;;;;9.50;3.93;;;;;;;-1.14;97.90;103280.38;4974396;28;20440;-70
2023/02/06 04:43:57;;;;;;;11.43;3.63;;;;;;;-1.18;98.28;103279.03;4974625;28;20992;-65
2023/02/06 04:46:25;;;;;;;7.93;3.50;;;;;;;-1.16;98.52;103282.34;4974500;28;20481;-66
2023/02/06 04:48:52;;;;;;;17.20;3.90;;;;;;;-1.13;98.15;103270.56;4974402;28;20446;-64
2023/02/06 04:51:18;;;;;;;9.77;3.87;;;;;;;-1.16;99.48;103262.91;4974028;28;20449;-65
2023/02/06 04:53:45;;;;;;;7.53;3.60;;;;;;;-1.19;99.74;103260.56;4974248;28;20501;-65
2023/02/06 04:56:12;;;;;;;9.23;3.27;;;;;;;-1.15;99.39;103264.56;4974271;28;20441;-65
2023/02/06 04:58:40;;;;;;;13.53;3.47;;;;;;;-1.14;98.71;103268.91;4974336;28;20442;-65
2023/02/06 05:01:07;;;;;;;8.03;3.27;;;;;;;-1.15;98.58;103264.56;4974084;28;20466;-65
2023/02/06 05:03:35;;;;;;;16.33;4.50;;;;;;;-1.14;99.25;103266.25;4973841;28;20528;-65
2023/02/06 05:06:04;;;;;;;8.20;3.23;;;;;;;-1.17;99.57;103264.72;4974176;28;20473;-66
2023/02/06 05:08:31;;;;;;;8.83;3.40;;;;;;;-1.22;99.55;103268.84;4974267;28;20545;-66
2023/02/06 05:10:57;;;;;;;10.23;3.50;;;;;;;-1.28;100.00;103272.97;4974234;28;20831;-65
2023/02/06 05:13:24;;;;;;;7.87;3.20;;;;;;;-1.24;100.00;103268.16;4974114;28;20829;-65
2023/02/06 05:15:50;;;;;;;8.90;3.40;;;;;;;-1.24;100.00;103262.84;4974183;28;20540;-67
2023/02/06 05:18:17;;;;;;;8.73;3.97;;;;;;;-1.19;100.00;103265.91;4974156;28;20441;-66
2023/02/06 05:20:45;;;;;;;10.77;4.10;;;;;;;-1.18;100.00;103272.88;4973789;28;21006;-65
2023/02/06 05:23:12;;;;;;;7.97;3.60;;;;;;;-1.21;100.00;103273.19;4977839;28;20575;-65
2023/02/06 05:25:38;;;;;;;8.77;3.37;;;;;;;-1.23;100.00;103275.16;4977924;28;20441;-65
2023/02/06 05:28:06;;;;;;;8.43;3.40;;;;;;;-1.24;100.00;103276.97;4977888;28;20441;-65
2023/02/06 05:30:32;;;;;;;10.43;3.97;;;;;;;-1.23;100.00;103268.03;4977837;28;20445;-65
2023/02/06 05:33:00;;;;;;;8.73;3.20;;;;;;;-1.20;100.00;103266.88;4977738;28;20497;-65
2023/02/06 05:35:26;;;;;;;8.80;4.10;;;;;;;-1.17;100.00;103261.25;4977726;28;20446;-65
2023/02/06 05:37:54;;;;;;;11.97;3.87;;;;;;;-1.12;100.00;103261.59;4977728;28;20823;-65
2023/02/06 05:40:21;;;;;;;9.60;4.10;;;;;;;-1.14;100.00;103263.59;4977338;28;20536;-65
2023/02/06 05:42:47;;;;;;;10.33;4.40;;;;;;;-1.15;100.00;103273.41;4977482;28;20493;-65
2023/02/06 05:45:14;;;;;;;9.90;4.40;;;;;;;-1.15;100.00;103265.41;4977513;28;20441;-66
2023/02/06 05:47:41;;;;;;;10.37;4.07;;;;;;;-1.13;100.00;103267.91;4977496;28;20481;-67
2023/02/06 05:50:08;;;;;;;8.30;3.67;;;;;;;-1.11;100.00;103268.56;4977190;28;20987;-64
2023/02/06 05:52:34;;;;;;;15.87;5.20;;;;;;;-1.11;100.00;103285.38;4977292;28;20479;-65
2023/02/06 05:55:02;;;;;;;11.93;3.30;;;;;;;-1.11;100.00;103272.06;4977072;28;20449;-65
2023/02/06 05:57:29;;;;;;;14.73;4.80;;;;;;;-1.02;100.00;103283.59;4977213;28;20469;-65
2023/02/06 05:59:56;;;;;;;8.73;4.00;;;;;;;-1.04;100.00;103285.59;4977245;28;20442;-65
2023/02/06 06:02:22;;;;;;;9.67;4.40;;;;;;;-1.02;100.00;103283.59;4976894;28;20589;-66
2023/02/06 06:04:49;;;;;;;9.80;4.97;;;;;;;-0.95;100.00;103281.16;4977217;28;20450;-66
2023/02/06 06:07:15;;;;;;;15.53;4.90;;;;;;;-0.85;100.00;103289.84;4977237;28;20445;-67
2023/02/06 06:09:42;;;;;;;10.40;4.07;;;;;;;-0.90;100.00;103281.50;4977126;28;20441;-65
2023/02/06 06:12:10;;;;;;;10.23;4.50;;;;;;;-0.92;100.00;103291.50;4977075;28;20895;-65
2023/02/06 06:14:36;;;;;;;7.97;3.70;;;;;;;-0.89;100.00;103299.97;4976994;28;20447;-64
2023/02/06 06:17:03;;;;;;;8.40;4.17;;;;;;;-0.90;100.00;103298.31;4976839;28;20446;-64
2023/02/06 06:19:30;;;;;;;11.93;4.00;;;;;;;-0.89;100.00;103305.28;4976729;28;20449;-64
2023/02/06 06:21:56;;;;;;;11.10;4.97;;;;;;;-0.90;100.00;103314.25;4976340;28;20882;-64
2023/02/06 06:24:23;;;;;;;12.30;6.03;;;;;;;-0.83;100.00;103312.66;4976111;28;20489;-64
2023/02/06 06:26:50;;;;;;;12.70;5.70;;;;;;;-0.81;100.00;103302.66;4976853;28;20464;-64
2023/02/06 06:29:18;;;;;;;11.70;4.23;;;;;;;-0.74;100.00;103297.56;4976402;28;20533;-65
2023/02/06 06:31:45;;;;;;;14.20;4.43;;;;;;;-0.73;100.00;103303.72;4976281;28;20481;-65
2023/02/06 06:34:11;;;;;;;10.13;4.30;;;;;;;-0.72;100.00;103302.72;4976210;28;20943;-64
2023/02/06 06:36:38;;;;;;;9.10;5.00;;;;;;;-0.80;100.00;103306.16;4976153;28;20485;-64
2023/02/06 06:39:05;;;;;;;10.77;4.67;;;;;;;-0.74;100.00;103302.06;4976552;28;20488;-64
2023/02/06 06:41:31;;;;;;;10.13;4.80;;;;;;;-0.76;100.00;103294.22;4976205;28;20454;-64
2023/02/06 06:43:58;;;;;;;14.50;4.50;;;;;;;-0.76;100.00;103288.91;4976361;28;20494;-64
2023/02/06 06:46:26;;;;;;;12.20;4.80;;;;;;;-0.79;100.00;103290.06;4976125;28;20438;-65
2023/02/06 06:48:53;;;;;;;12.13;4.83;;;;;;;-0.81;100.00;103297.34;4976046;28;20454;-65
2023/02/06 06:51:20;;;;;;;9.47;4.77;;;;;;;-0.80;100.00;103283.09;4976205;28;20452;-66
2023/02/06 06:53:46;;;;;;;10.47;4.57;;;;;;;-0.72;100.00;103300.88;4976200;28;20569;-65
2023/02/06 06:56:14;;;;;;;12.97;4.70;;;;;;;-0.66;100.00;103296.78;4976286;28;20852;-65
2023/02/06 06:58:41;;;;;;;11.37;5.40;;;;;;;-0.68;100.00;103296.09;4976167;28;20460;-65
2023/02/06 07:01:08;;;;;;;11.50;4.50;;;;;;;-0.79;100.00;103286.56;4975858;28;20948;-66
2023/02/06 07:03:36;;;;;;;13.20;4.07;;;;;;;-0.67;100.00;103284.44;4975626;28;20501;-65
2023/02/06 07:06:05;;;;;;;9.43;4.07;;;;;;;-0.63;100.00;103273.31;4976054;28;20445;-65
2023/02/06 07:08:31;;;;;;;12.97;5.27;;;;;;;-0.68;100.00;103285.44;4977403;28;20445;-70
2023/02/06 07:10:58;;;;;;;9.00;4.10;;;;;;;-0.64;100.00;103292.94;4975971;28;20484;-69
2023/02/06 07:13:24;;;;;;;13.30;5.27;;;;;;;-0.63;100.00;103288.47;4975464;28;20466;-70
2023/02/06 07:15:51;;;;;;;13.00;5.03;;;;;;;-0.60;100.00;103285.50;4975875;28;20486;-70
2023/02/06 07:18:18;;;;;;;10.53;5.17;;;;;;;-0.66;100.00;103296.78;4975812;28;20446;-69
2023/02/06 07:20:45;;;;;;;11.50;4.93;;;;;;;-0.61;100.00;103295.31;4975840;28;20485;-70
2023/02/06 07:23:12;;;;;;;14.70;5.00;;;;;;;-0.60;100.00;103290.81;4975651;28;20580;-70
2023/02/06 07:25:39;;;;;;;12.93;5.23;;;;;;;-0.49;100.00;103290.50;4975485;28;20868;-69
2023/02/06 07:28:05;;;;;;;11.20;4.77;;;;;;;-0.52;100.00;103297.00;4975731;28;20452;-69
2023/02/06 07:30:32;;;;;;;11.50;4.83;;;;;;;-0.52;100.00;103293.50;4975388;28;20488;-69
2023/02/06 07:32:59;;;;;;;13.20;4.50;;;;;;;-0.53;100.00;103297.19;4975532;28;20466;-69
2023/02/06 07:35:25;;;;;;;10.73;4.87;;;;;;;-0.62;100.00;103300.75;4975263;28;20452;-69
2023/02/06 07:37:54;;;;;;;11.83;4.57;;;;;;;-0.65;100.00;103303.75;4975521;28;20488;-69
2023/02/06 07:40:21;;;;;;;11.27;4.60;;;;;;;-0.56;100.00;103310.78;4975452;28;20448;-69
2023/02/06 07:42:47;;;;;;;11.20;5.33;;;;;;;-0.55;100.00;103312.47;4975319;28;20493;-69
2023/02/06 07:45:14;;;;;;;12.27;5.00;;;;;;;-0.41;100.00;103319.00;4974427;28;20448;-69
2023/02/06 07:47:42;;;;;;;10.37;4.33;;;;;;;-0.38;100.00;103310.69;4974909;28;20461;-69
2023/02/06 07:50:09;;;;;;;10.87;4.37;;;;;;;-0.38;100.00;103316.84;4975239;28;20485;-69
2023/02/06 07:52:36;;;;;;;9.33;4.70;;;;;;;-0.31;100.00;103317.03;4975193;28;20488;-69
2023/02/06 07:55:05;;;;;;;10.43;5.57;;;;;;;-0.30;100.00;103305.41;4975302;28;20464;-69
2023/02/06 07:57:31;;;;;;;10.53;5.00;;;;;;;-0.28;100.00;103304.25;4975117;28;20454;-69
2023/02/06 07:59:58;;;;;;;11.07;5.40;;;;;;;-0.28;100.00;103293.59;4975135;28;20460;-69
2023/02/06 08:02:24;;;;;;;13.53;5.63;;;;;;;-0.29;100.00;103293.75;4974746;28;20474;-70
2023/02/06 08:04:51;;;;;;;17.93;6.07;;;;;;;-0.32;100.00;103300.22;4974996;28;20482;-70
2023/02/06 08:07:18;;;;;;;11.60;5.47;;;;;;;-0.27;100.00;103303.25;4975014;28;20456;-69
2023/02/06 08:09:45;;;;;;;13.50;5.87;;;;;;;-0.26;100.00;103307.59;4974952;28;20466;-70
2023/02/06 08:12:13;;;;;;;12.87;6.70;;;;;;;-0.26;100.00;103312.09;4976291;28;20473;-71
2023/02/06 08:14:39;;;;;;;16.23;6.60;;;;;;;-0.22;100.00;103313.44;4974968;28;20488;-69
2023/02/06 08:17:06;;;;;;;14.47;5.67;;;;;;;-0.22;100.00;103318.75;4974864;28;20485;-68
2023/02/06 08:19:33;;;;;;;10.80;5.47;;;;;;;-0.17;100.00;103302.28;4974883;28;20452;-72
2023/02/06 08:22:00;;;;;;;15.37;6.63;;;;;;;-0.24;100.00;103306.59;4974730;28;20468;-67
2023/02/06 08:24:26;;;;;;;13.77;5.90;;;;;;;-0.15;100.00;103314.44;4974700;28;20544;-67
2023/02/06 08:26:53;;;;;;;12.53;5.90;;;;;;;-0.10;100.00;103304.13;4974624;28;20520;-66
2023/02/06 08:29:21;;;;;;;16.67;6.10;;;;;;;-0.03;100.00;103310.47;4974628;28;20452;-66
2023/02/06 08:31:48;;;;;;;12.60;6.00;;;;;;;-0.04;100.00;103300.81;4974363;28;20443;-67
2023/02/06 08:34:15;;;;;;;18.00;7.37;;;;;;;0.03;100.00;103311.66;4974598;28;20441;-68
2023/02/06 08:36:43;;;;;;;11.33;5.63;;;;;;;0.08;100.00;103309.31;4974492;28;20473;-70
2023/02/06 08:39:12;;;;;;;15.70;6.47;;;;;;;0.18;100.00;103299.38;4974206;28;20939;-70
2023/02/06 08:41:42;;;;;;;14.97;5.73;;;;;;;0.22;100.00;103298.03;4974137;28;20893;-70
2023/02/06 08:44:11;;;;;;;11.87;5.60;;;;;;;0.25;100.00;103303.03;4974438;28;20564;-71
2023/02/06 08:46:39;;;;;;;17.63;6.43;;;;;;;0.21;100.00;103315.00;4974168;28;20940;-71
2023/02/06 08:49:08;;;;;;;24.47;7.90;;;;;;;0.23;100.00;103315.69;4974178;28;20822;-70
2023/02/06 08:51:36;;;;;;;19.60;7.43;;;;;;;0.19;100.00;103308.19;4974463;28;20536;-70
2023/02/06 08:54:05;;;;;;;16.53;6.77;;;;;;;0.22;100.00;103308.69;4974029;28;20468;-70
2023/02/06 08:56:33;;;;;;;13.07;5.67;;;;;;;0.24;100.00;103312.03;4977143;28;20457;-69
2023/02/06 08:59:00;;;;;;;15.70;6.57;;;;;;;0.28;100.00;103303.72;4978131;28;20970;-69
2023/02/06 09:01:29;;;;;;;11.50;6.57;;;;;;;0.18;100.00;103314.53;4978321;28;20445;-68
2023/02/06 09:03:58;;;;;;;18.70;5.97;;;;;;;0.21;100.00;103300.84;4977753;28;20489;-68
2023/02/06 09:06:26;;;;;;;15.83;6.67;;;;;;;0.26;100.00;103311.84;4978266;28;20441;-68
2023/02/06 09:08:54;;;;;;;20.93;6.90;;;;;;;0.29;100.00;103308.88;4977977;28;20528;-69
2023/02/06 09:11:22;;;;;;;13.37;6.33;;;;;;;0.39;100.00;103311.38;4977933;28;20540;-68
2023/02/06 09:13:49;;;;;;;14.97;7.03;;;;;;;0.33;100.00;103315.53;4978125;28;20458;-69
2023/02/06 09:16:18;;;;;;;14.20;6.30;;;;;;;0.31;100.00;103327.34;4977852;28;20966;-70
2023/02/06 09:18:45;;;;;;;17.33;6.30;;;;;;;0.34;100.00;103319.84;4978091;28;20462;-68
2023/02/06 09:21:14;;;;;;;18.00;7.53;;;;;;;0.43;100.00;103323.38;4978044;28;20452;-69
2023/02/06 09:23:43;;;;;;;16.03;7.00;;;;;;;0.34;100.00;103317.19;4977837;28;20497;-68
2023/02/06 09:26:10;;;;;;;19.17;8.10;;;;;;;0.36;100.00;103328.53;4977673;28;20485;-68
2023/02/06 09:28:37;;;;;;;18.10;7.97;;;;;;;0.36;100.00;103333.88;4977870;28;20520;-68
2023/02/06 09:31:04;;;;;;;17.13;7.13;;;;;;;0.41;100.00;103338.72;4977854;28;20454;-69
2023/02/06 09:33:30;;;;;;;24.77;7.83;;;;;;;0.51;100.00;103347.38;4977706;28;20549;-68
2023/02/06 09:36:05;;;;;;;21.00;8.20;;;;;;;0.51;100.00;103344.72;4977788;28;20453;-67
2023/02/06 09:38:34;;;;;;;18.33;7.90;;;;;;;0.52;100.00;103346.38;4977682;28;20476;-69
2023/02/06 09:41:03;;;;;;;23.17;9.13;;;;;;;0.57;100.00;103356.53;4978156;28;20533;-68
2023/02/06 09:43:31;;;;;;;20.70;8.73;;;;;;;0.57;100.00;103351.19;4977516;28;20572;-68
2023/02/06 09:46:01;;;;;;;23.93;9.17;;;;;;;0.66;100.00;103344.88;4977290;28;20532;-68
2023/02/06 09:48:31;;;;;;;17.90;7.37;;;;;;;0.63;100.00;103354.06;4977510;28;20863;-68
2023/02/06 09:51:06;;;;;;;17.40;8.07;;;;;;;0.58;100.00;103353.72;4977453;28;20446;-68
2023/02/06 09:53:45;;;;;;;17.87;6.93;;;;;;;0.64;100.00;103350.38;4977477;28;20461;-69
2023/02/06 09:56:19;;;;;;;14.20;6.80;;;;;;;0.71;100.00;103350.56;4977532;28;20464;-69
2023/02/06 09:58:51;;;;;;;16.00;7.30;;;;;;;0.81;100.00;103348.56;4977301;28;20422;-69
2023/02/06 10:01:24;;;;;;;17.27;9.17;;;;;;;0.91;100.00;103353.72;4977278;28;20895;-69
2023/02/06 10:04:08;;;;;;;17.77;7.50;;;;;;;0.96;100.00;103351.38;4976745;28;20493;-68
2023/02/06 10:06:42;;;;;;;16.53;8.30;;;;;;;0.98;100.00;103355.53;4976654;28;20440;-68
2023/02/06 10:09:16;;;;;;;15.33;7.60;;;;;;;0.97;100.00;103361.03;4977199;28;20444;-68
2023/02/06 10:11:47;;;;;;;18.40;8.37;;;;;;;1.01;100.00;103371.19;4977083;28;20509;-68
2023/02/06 10:14:21;;;;;;;13.70;6.40;;;;;;;1.04;100.00;103369.22;4976809;28;20915;-68
2023/02/06 10:16:51;;;;;;;27.77;8.90;;;;;;;0.98;100.00;103376.06;4976727;28;20950;-68
2023/02/06 10:19:26;;;;;;;18.20;7.57;;;;;;;0.93;100.00;103381.91;4976713;28;20500;-68
2023/02/06 10:21:58;;;;;;;19.17;7.83;;;;;;;1.04;100.00;103387.91;4976615;28;20434;-68
2023/02/06 10:24:36;;;;;;;22.50;7.50;;;;;;;1.11;100.00;103386.22;4976487;28;20955;-68
2023/02/06 10:27:09;;;;;;;17.17;7.17;;;;;;;1.15;100.00;103388.41;4976930;28;20434;-68
2023/02/06 10:29:36;;;;;;;18.17;8.37;;;;;;;1.22;100.00;103377.84;4976773;28;20426;-67
2023/02/06 10:32:14;;;;;;;25.57;8.27;;;;;;;1.20;100.00;103375.38;4976404;28;20551;-68
2023/02/06 10:35:12;;;;;;;15.17;7.03;;;;;;;1.17;100.00;103375.69;4976471;28;20963;-69
2023/02/06 10:38:03;;;;;;;17.57;7.30;;;;;;;1.24;100.00;103375.88;4976365;28;20430;-68
2023/02/06 10:40:38;;;;;;;12.10;6.50;;;;;;;1.10;100.00;103364.03;4976629;28;20434;-68
2023/02/06 10:43:17;;;;;;;18.93;8.03;;;;;;;1.18;100.00;103360.50;4976521;28;20508;-68
2023/02/06 10:45:47;;;;;;;18.60;7.33;;;;;;;1.14;100.00;103365.34;4976467;28;20553;-68
2023/02/06 10:48:25;;;;;;;17.43;6.63;;;;;;;1.23;100.00;103364.34;4976225;28;20807;-68
2023/02/06 10:50:58;;;;;;;19.23;7.10;;;;;;;1.37;100.00;103364.63;4976252;28;20430;-68
2023/02/06 10:53:28;;;;;;;20.70;7.10;;;;;;;1.48;100.00;103356.28;4975996;28;20545;-65
2023/02/06 10:55:59;;;;;;;19.40;7.30;;;;;;;1.50;100.00;103351.56;4976405;28;20509;-65
2023/02/06 10:58:31;;;;;;;17.83;6.57;;;;;;;1.55;100.00;103356.41;4975996;28;20432;-65
2023/02/06 11:00:59;;;;;;;12.93;6.10;;;;;;;1.49;100.00;103366.78;4976304;28;20444;-65
2023/02/06 11:03:30;;;;;;;18.53;7.00;;;;;;;1.59;100.00;103366.56;4975635;28;20484;-65
2023/02/06 11:05:57;;;;;;;13.67;5.83;;;;;;;1.68;100.00;103351.34;4976188;28;20449;-65
2023/02/06 11:08:28;;;;;;;14.07;5.80;;;;;;;1.67;100.00;103350.53;4975833;28;20902;-65
2023/02/06 11:10:56;;;;;;;15.40;6.43;;;;;;;1.77;100.00;103359.19;4975772;28;20450;-63
2023/02/06 11:13:27;;;;;;;14.37;5.67;;;;;;;1.82;100.00;103376.53;4975936;28;20899;-65
2023/02/06 11:16:00;;;;;;;14.70;5.50;;;;;;;1.81;100.00;103377.50;4976035;28;20469;-65
2023/02/06 11:18:32;;;;;;;12.23;4.57;;;;;;;1.76;100.00;103367.34;4975225;28;20449;-65
2023/02/06 11:20:59;;;;;;;12.83;5.40;;;;;;;1.76;100.00;103370.84;4975412;28;20437;-65
2023/02/06 11:23:27;;;;;;;20.50;6.63;;;;;;;1.71;100.00;103362.53;4975720;28;20466;-63